Time;durP1;ratioP1;P1;durP2;ratioP2;P2;SDS_P1;SDS_P2;PMS_P1;PMS_P2;Temp;Humidity;BMP_temperature;BMP_pressure;BME280_temperature;BME280_humidity;BME280_pressure;Samples;Min_cycle;Max_cycle;Signal;HPM_P1;HPM_P2
2021/09/08 00:00:47;;;;;;;17.33;12.60;;;;;;;;;;4988463;28;20045;-42
2021/09/08 00:03:14;;;;;;;17.63;12.32;;;;;;;;;;4974192;28;20078;-42
2021/09/08 00:05:41;;;;;;;15.35;11.30;;;;;;;;;;4978213;28;20066;-43
2021/09/08 00:08:08;;;;;;;13.63;10.82;;;;;;;;;;4992809;28;20039;-44
2021/09/08 00:10:35;;;;;;;15.48;10.82;;;;;;;;;;4990423;28;20049;-43
2021/09/08 00:13:02;;;;;;;13.98;10.50;;;;;;;;;;4980418;28;20043;-41
2021/09/08 00:15:28;;;;;;;16.05;11.13;;;;;;;;;;4983923;28;20056;-42
2021/09/08 00:17:56;;;;;;;13.68;10.73;;;;;;;;;;4993667;28;20050;-42
2021/09/08 00:20:22;;;;;;;14.27;10.88;;;;;;;;;;4988550;28;20080;-41
2021/09/08 00:22:49;;;;;;;13.82;10.60;;;;;;;;;;4974113;28;20504;-42
2021/09/08 00:25:16;;;;;;;13.45;10.80;;;;;;;;;;4966969;28;20526;-41
2021/09/08 00:27:43;;;;;;;15.88;11.05;;;;;;;;;;4993408;28;20125;-42
2021/09/08 00:30:10;;;;;;;13.95;10.68;;;;;;;;;;4991255;28;20074;-44
2021/09/08 00:32:37;;;;;;;13.95;10.38;;;;;;;;;;4991066;28;20046;-41
2021/09/08 00:35:05;;;;;;;11.77;9.73;;;;;;;;;;4980865;28;20046;-41
2021/09/08 00:37:35;;;;;;;14.45;11.02;;;;;;;;;;4973652;28;20400;-45
2021/09/08 00:40:03;;;;;;;14.00;10.25;;;;;;;;;;4989122;28;20048;-44
2021/09/08 00:42:30;;;;;;;17.65;10.73;;;;;;;;;;4991645;28;20072;-41
2021/09/08 00:45:05;;;;;;;13.38;9.82;;;;;;;;;;4983639;28;20066;-41
2021/09/08 00:47:32;;;;;;;15.38;11.00;;;;;;;;;;4992828;28;20039;-40
2021/09/08 00:50:00;;;;;;;11.82;10.05;;;;;;;;;;4991971;28;20445;-40
2021/09/08 00:52:27;;;;;;;13.73;10.57;;;;;;;;;;4986199;28;20062;-40
2021/09/08 00:54:54;;;;;;;13.18;10.15;;;;;;;;;;4989588;28;20034;-45
2021/09/08 00:57:22;;;;;;;15.10;11.20;;;;;;;;;;4992388;28;20411;-44
2021/09/08 00:59:50;;;;;;;14.50;10.60;;;;;;;;;;4991051;28;20134;-44
2021/09/08 01:02:17;;;;;;;13.90;11.50;;;;;;;;;;4971970;28;20042;-41
2021/09/08 01:04:45;;;;;;;14.25;10.70;;;;;;;;;;4981944;28;20042;-44
2021/09/08 01:07:13;;;;;;;14.80;11.27;;;;;;;;;;4981351;28;20105;-42
2021/09/08 01:09:40;;;;;;;13.63;10.40;;;;;;;;;;4991092;28;20050;-42
2021/09/08 01:12:10;;;;;;;13.20;10.32;;;;;;;;;;4972793;28;20035;-42
2021/09/08 01:14:37;;;;;;;15.75;11.07;;;;;;;;;;4976159;28;20062;-42
2021/09/08 01:17:04;;;;;;;13.02;9.90;;;;;;;;;;4990750;28;20136;-43
2021/09/08 01:19:31;;;;;;;12.93;10.45;;;;;;;;;;4991896;28;20066;-44
2021/09/08 01:21:58;;;;;;;15.70;10.63;;;;;;;;;;4985044;28;20122;-42
2021/09/08 01:24:24;;;;;;;13.55;9.80;;;;;;;;;;4971789;28;20049;-44
2021/09/08 01:26:53;;;;;;;14.80;10.80;;;;;;;;;;4998276;28;20068;-44
2021/09/08 01:29:20;;;;;;;13.82;10.73;;;;;;;;;;4997281;28;20041;-45
2021/09/08 01:31:54;;;;;;;12.35;9.40;;;;;;;;;;4982486;28;21855;-43
2021/09/08 01:34:21;;;;;;;15.00;10.23;;;;;;;;;;4986280;28;20130;-43
2021/09/08 01:36:48;;;;;;;14.18;10.65;;;;;;;;;;4991435;28;20703;-43
2021/09/08 01:39:19;;;;;;;12.95;10.02;;;;;;;;;;4990203;28;20046;-50
2021/09/08 01:41:46;;;;;;;13.43;9.70;;;;;;;;;;4992125;28;20104;-45
2021/09/08 01:44:17;;;;;;;13.32;10.40;;;;;;;;;;4979876;28;20052;-44
2021/09/08 01:46:45;;;;;;;13.18;9.48;;;;;;;;;;4974970;28;20468;-43
2021/09/08 01:49:11;;;;;;;14.55;10.68;;;;;;;;;;4989178;28;20030;-45
2021/09/08 01:51:38;;;;;;;15.63;10.48;;;;;;;;;;4983670;28;20046;-44
2021/09/08 01:54:05;;;;;;;12.88;10.45;;;;;;;;;;4977348;28;20484;-43
2021/09/08 01:56:31;;;;;;;14.27;10.13;;;;;;;;;;4972490;28;20057;-46
2021/09/08 01:58:58;;;;;;;12.80;10.23;;;;;;;;;;4972138;28;20071;-43
2021/09/08 02:01:25;;;;;;;14.90;10.20;;;;;;;;;;4991620;28;20490;-46
2021/09/08 02:03:53;;;;;;;13.65;10.35;;;;;;;;;;4988426;28;20042;-45
2021/09/08 02:06:23;;;;;;;14.27;9.95;;;;;;;;;;4985781;28;20137;-43
2021/09/08 02:08:53;;;;;;;14.10;9.73;;;;;;;;;;4974977;28;20048;-44
2021/09/08 02:11:20;;;;;;;14.88;10.52;;;;;;;;;;4989652;28;20137;-48
2021/09/08 02:13:48;;;;;;;15.63;10.32;;;;;;;;;;4976518;28;20043;-43
2021/09/08 02:16:18;;;;;;;14.05;10.63;;;;;;;;;;4992708;28;20189;-44
2021/09/08 02:18:45;;;;;;;13.95;10.10;;;;;;;;;;4995478;28;20035;-43
2021/09/08 02:21:12;;;;;;;12.75;10.10;;;;;;;;;;4990431;28;20042;-45
2021/09/08 02:23:39;;;;;;;16.73;11.23;;;;;;;;;;4975413;28;20488;-42
2021/09/08 02:26:06;;;;;;;13.88;10.70;;;;;;;;;;4985538;28;20066;-44
2021/09/08 02:28:32;;;;;;;13.65;10.75;;;;;;;;;;4977475;28;20045;-44
2021/09/08 02:30:59;;;;;;;14.27;10.32;;;;;;;;;;4992670;28;20129;-45
2021/09/08 02:33:26;;;;;;;14.90;10.70;;;;;;;;;;4990625;28;20077;-44
2021/09/08 02:35:53;;;;;;;15.40;11.00;;;;;;;;;;4987630;28;20051;-48
2021/09/08 02:38:44;;;;;;;14.80;11.63;;;;;;;;;;5107815;27;20194;-44
2021/09/08 02:41:10;;;;;;;15.68;10.68;;;;;;;;;;5106002;28;20507;-47
2021/09/08 02:43:37;;;;;;;15.30;11.38;;;;;;;;;;5072698;28;20099;-45
2021/09/08 02:46:04;;;;;;;16.42;11.68;;;;;;;;;;5098797;28;20040;-42
2021/09/08 02:48:31;;;;;;;14.50;10.35;;;;;;;;;;5109209;28;20044;-43
2021/09/08 02:50:58;;;;;;;16.17;10.57;;;;;;;;;;5096365;28;20523;-42
2021/09/08 02:53:25;;;;;;;15.10;11.38;;;;;;;;;;5096941;28;20496;-43
2021/09/08 02:55:52;;;;;;;16.05;11.35;;;;;;;;;;5108168;28;20068;-42
2021/09/08 02:58:19;;;;;;;17.50;11.25;;;;;;;;;;5104230;28;20052;-46
2021/09/08 03:00:45;;;;;;;14.82;10.88;;;;;;;;;;5107701;28;20131;-43
2021/09/08 03:03:12;;;;;;;16.80;11.10;;;;;;;;;;5102543;28;20047;-43
2021/09/08 03:05:39;;;;;;;15.50;11.63;;;;;;;;;;5103020;28;20488;-42
2021/09/08 03:08:06;;;;;;;16.83;12.02;;;;;;;;;;5098276;28;20498;-42
2021/09/08 03:10:34;;;;;;;16.30;10.90;;;;;;;;;;5075973;28;20560;-42
2021/09/08 03:13:01;;;;;;;14.65;11.40;;;;;;;;;;5092290;28;20068;-42
2021/09/08 03:15:28;;;;;;;15.93;11.25;;;;;;;;;;5091322;28;20040;-45
2021/09/08 03:17:55;;;;;;;14.38;11.15;;;;;;;;;;5108414;28;20530;-43
2021/09/08 03:20:22;;;;;;;16.67;12.15;;;;;;;;;;5096272;28;20122;-43
2021/09/08 03:22:49;;;;;;;14.90;11.27;;;;;;;;;;5074876;28;20047;-43
2021/09/08 03:25:15;;;;;;;15.45;11.40;;;;;;;;;;5084352;28;20119;-44
2021/09/08 03:27:42;;;;;;;17.42;11.43;;;;;;;;;;5092584;28;20512;-44
2021/09/08 03:30:09;;;;;;;15.77;11.65;;;;;;;;;;5089758;28;20477;-43
2021/09/08 03:32:36;;;;;;;14.70;11.05;;;;;;;;;;5105015;28;20450;-43
2021/09/08 03:35:03;;;;;;;17.98;11.88;;;;;;;;;;5084519;28;20047;-45
2021/09/08 03:37:30;;;;;;;15.75;11.15;;;;;;;;;;5107680;28;20046;-44
2021/09/08 03:39:57;;;;;;;18.45;11.70;;;;;;;;;;5104721;28;20046;-45
2021/09/08 03:42:27;;;;;;;15.63;11.77;;;;;;;;;;5104992;28;20047;-44
2021/09/08 03:44:54;;;;;;;15.27;11.38;;;;;;;;;;5080611;28;20040;-45
2021/09/08 03:47:21;;;;;;;14.93;10.80;;;;;;;;;;5108332;28;20503;-47
2021/09/08 03:49:48;;;;;;;14.50;11.45;;;;;;;;;;5091129;28;20054;-45
2021/09/08 03:52:15;;;;;;;16.20;11.23;;;;;;;;;;5062739;28;20041;-44
2021/09/08 03:54:42;;;;;;;16.45;11.18;;;;;;;;;;5063071;28;20051;-44
2021/09/08 03:57:09;;;;;;;16.50;11.77;;;;;;;;;;5094330;28;20066;-43
2021/09/08 03:59:36;;;;;;;15.98;11.63;;;;;;;;;;5069966;28;20466;-45
2021/09/08 04:02:03;;;;;;;23.30;12.85;;;;;;;;;;5074015;28;20420;-43
2021/09/08 04:04:31;;;;;;;17.88;12.30;;;;;;;;;;5077578;28;20032;-44
2021/09/08 04:07:01;;;;;;;17.42;12.30;;;;;;;;;;5093064;28;20067;-44
2021/09/08 04:09:30;;;;;;;15.18;11.85;;;;;;;;;;5087495;28;20139;-43
2021/09/08 04:11:57;;;;;;;16.65;11.80;;;;;;;;;;5094558;28;20138;-43
2021/09/08 04:14:24;;;;;;;16.90;12.52;;;;;;;;;;5088187;28;20048;-44
2021/09/08 04:16:51;;;;;;;15.88;12.10;;;;;;;;;;5094527;28;20044;-44
2021/09/08 04:19:18;;;;;;;18.00;12.60;;;;;;;;;;5092303;28;20872;-44
2021/09/08 04:21:44;;;;;;;17.50;12.05;;;;;;;;;;5094035;28;20067;-43
2021/09/08 04:24:11;;;;;;;16.85;11.98;;;;;;;;;;5074031;28;20664;-45
2021/09/08 04:26:38;;;;;;;16.27;12.05;;;;;;;;;;5092048;28;20040;-43
2021/09/08 04:29:04;;;;;;;20.55;12.85;;;;;;;;;;5090274;28;20119;-42
2021/09/08 04:31:31;;;;;;;15.68;12.30;;;;;;;;;;5082236;28;20512;-44
2021/09/08 04:33:58;;;;;;;19.70;13.13;;;;;;;;;;5065251;28;20044;-45
2021/09/08 04:36:25;;;;;;;18.13;12.90;;;;;;;;;;5089877;28;20059;-44
2021/09/08 04:38:53;;;;;;;20.95;12.27;;;;;;;;;;5091600;28;20032;-45
2021/09/08 04:41:20;;;;;;;16.65;12.80;;;;;;;;;;5086466;28;20054;-44
2021/09/08 04:43:46;;;;;;;19.83;13.30;;;;;;;;;;5068640;28;20057;-42
2021/09/08 04:46:13;;;;;;;17.08;12.32;;;;;;;;;;5087245;28;20054;-43
2021/09/08 04:48:40;;;;;;;18.02;12.70;;;;;;;;;;5090955;28;20040;-44
2021/09/08 04:51:07;;;;;;;16.23;12.15;;;;;;;;;;5087302;28;20044;-44
2021/09/08 04:53:34;;;;;;;16.08;11.93;;;;;;;;;;5082306;28;20116;-45
2021/09/08 04:56:00;;;;;;;18.00;12.52;;;;;;;;;;5091642;28;20127;-43
2021/09/08 04:58:28;;;;;;;20.00;13.15;;;;;;;;;;5093239;28;20060;-44
2021/09/08 05:00:55;;;;;;;17.85;12.13;;;;;;;;;;5072111;28;20409;-43
2021/09/08 05:03:22;;;;;;;15.48;12.32;;;;;;;;;;5090268;28;20064;-43
2021/09/08 05:05:48;;;;;;;16.02;12.50;;;;;;;;;;5072101;28;20049;-45
2021/09/08 05:08:15;;;;;;;19.17;14.10;;;;;;;;;;5091225;28;20044;-44
2021/09/08 05:10:42;;;;;;;19.25;13.70;;;;;;;;;;5091001;28;20044;-42
2021/09/08 05:13:09;;;;;;;20.55;13.90;;;;;;;;;;5068941;28;20044;-44
2021/09/08 05:15:35;;;;;;;19.98;12.80;;;;;;;;;;5077516;28;20044;-47
2021/09/08 05:18:02;;;;;;;21.75;13.90;;;;;;;;;;5091096;28;20036;-45
2021/09/08 05:20:29;;;;;;;21.35;15.18;;;;;;;;;;5094774;22;20062;-48
2021/09/08 05:22:56;;;;;;;20.77;13.75;;;;;;;;;;5066794;28;20537;-43
2021/09/08 05:25:23;;;;;;;24.05;15.35;;;;;;;;;;5069379;28;20037;-45
2021/09/08 05:27:50;;;;;;;19.60;13.95;;;;;;;;;;5066486;28;20052;-43
2021/09/08 05:30:16;;;;;;;25.42;15.05;;;;;;;;;;5057584;28;20416;-43
2021/09/08 05:32:43;;;;;;;26.05;15.35;;;;;;;;;;5045386;28;20543;-46
2021/09/08 05:35:12;;;;;;;21.88;14.23;;;;;;;;;;5046114;28;20043;-41
2021/09/08 05:37:42;;;;;;;23.23;15.48;;;;;;;;;;5050777;28;20055;-46
2021/09/08 05:40:09;;;;;;;19.75;14.55;;;;;;;;;;5050450;28;20053;-46
2021/09/08 05:42:36;;;;;;;20.13;13.95;;;;;;;;;;5051399;28;20095;-45
2021/09/08 05:45:03;;;;;;;18.50;13.93;;;;;;;;;;5041662;28;20037;-43
2021/09/08 05:47:31;;;;;;;21.88;14.02;;;;;;;;;;5033288;28;20417;-44
2021/09/08 05:49:58;;;;;;;21.65;14.80;;;;;;;;;;5050459;28;20041;-45
2021/09/08 05:52:25;;;;;;;22.67;14.60;;;;;;;;;;5048553;28;20072;-49
2021/09/08 05:54:51;;;;;;;21.25;13.80;;;;;;;;;;5037197;28;20045;-46
2021/09/08 05:57:18;;;;;;;22.05;15.10;;;;;;;;;;5050286;28;20045;-45
2021/09/08 05:59:45;;;;;;;19.85;13.77;;;;;;;;;;5049137;28;20095;-47
2021/09/08 06:02:12;;;;;;;19.88;14.43;;;;;;;;;;5031549;28;20045;-45
2021/09/08 06:04:39;;;;;;;22.33;15.48;;;;;;;;;;5037800;28;20059;-44
2021/09/08 06:07:05;;;;;;;24.27;16.50;;;;;;;;;;5031484;28;20033;-46
2021/09/08 06:09:32;;;;;;;21.73;16.15;;;;;;;;;;5047194;28;20052;-48
2021/09/08 06:11:59;;;;;;;22.05;15.38;;;;;;;;;;5048028;28;20575;-45
2021/09/08 06:14:26;;;;;;;21.10;15.73;;;;;;;;;;5046640;28;20203;-48
2021/09/08 06:16:52;;;;;;;20.75;16.58;;;;;;;;;;5049542;28;20144;-45
2021/09/08 06:19:19;;;;;;;22.48;15.63;;;;;;;;;;5049982;28;20413;-44
2021/09/08 06:21:46;;;;;;;23.88;16.13;;;;;;;;;;5038024;28;20521;-44
2021/09/08 06:24:14;;;;;;;21.20;15.13;;;;;;;;;;5032154;28;20071;-45
2021/09/08 06:26:41;;;;;;;22.75;16.20;;;;;;;;;;5050815;28;20041;-46
2021/09/08 06:29:08;;;;;;;20.35;14.57;;;;;;;;;;5044331;28;20064;-45
2021/09/08 06:31:34;;;;;;;22.77;14.20;;;;;;;;;;5050767;28;20395;-45
2021/09/08 06:34:01;;;;;;;19.35;14.50;;;;;;;;;;5045239;28;20092;-46
2021/09/08 06:36:28;;;;;;;20.58;15.15;;;;;;;;;;5036972;28;20045;-43
2021/09/08 06:38:55;;;;;;;20.58;14.23;;;;;;;;;;5049823;28;20056;-44
2021/09/08 06:41:21;;;;;;;22.77;14.77;;;;;;;;;;5047063;28;20040;-46
2021/09/08 06:43:49;;;;;;;19.80;14.73;;;;;;;;;;5030682;28;20459;-43
2021/09/08 06:46:16;;;;;;;20.17;14.50;;;;;;;;;;5048834;28;20140;-49
2021/09/08 06:48:43;;;;;;;22.50;14.70;;;;;;;;;;5049980;28;20048;-45
2021/09/08 06:51:12;;;;;;;18.73;13.82;;;;;;;;;;5048003;28;20076;-45
2021/09/08 06:53:38;;;;;;;24.08;15.07;;;;;;;;;;5047230;28;20039;-44
2021/09/08 06:56:06;;;;;;;19.60;13.45;;;;;;;;;;5050443;28;20080;-45
2021/09/08 06:58:33;;;;;;;21.95;13.32;;;;;;;;;;5050734;28;20052;-44
2021/09/08 07:01:03;;;;;;;22.60;12.95;;;;;;;;;;5047306;28;20391;-42
2021/09/08 07:03:33;;;;;;;23.42;14.13;;;;;;;;;;5047901;28;20045;-42
2021/09/08 07:06:00;;;;;;;20.95;12.73;;;;;;;;;;5047513;28;20060;-47
2021/09/08 07:08:27;;;;;;;17.58;12.52;;;;;;;;;;5049991;28;20056;-44
2021/09/08 07:10:53;;;;;;;17.02;13.15;;;;;;;;;;5049833;28;20379;-42
2021/09/08 07:13:20;;;;;;;15.95;12.57;;;;;;;;;;5049803;28;20041;-45
2021/09/08 07:15:47;;;;;;;18.90;12.20;;;;;;;;;;5047538;28;20408;-45
2021/09/08 07:18:15;;;;;;;16.73;12.50;;;;;;;;;;5050319;28;20041;-42
2021/09/08 07:20:42;;;;;;;18.77;12.43;;;;;;;;;;5048520;28;20081;-42
2021/09/08 07:23:09;;;;;;;19.90;12.15;;;;;;;;;;5046512;28;20041;-43
2021/09/08 07:25:35;;;;;;;15.25;12.05;;;;;;;;;;5052699;28;20044;-45
2021/09/08 07:28:03;;;;;;;25.70;12.75;;;;;;;;;;5058162;28;20056;-45
2021/09/08 07:30:29;;;;;;;18.60;13.15;;;;;;;;;;5048633;28;20342;-43
2021/09/08 07:32:56;;;;;;;16.08;12.02;;;;;;;;;;5038874;28;20123;-43
2021/09/08 07:35:23;;;;;;;17.45;12.80;;;;;;;;;;5043622;28;20409;-47
2021/09/08 07:37:50;;;;;;;16.77;12.73;;;;;;;;;;5049554;28;20051;-42
2021/09/08 07:40:18;;;;;;;17.33;12.75;;;;;;;;;;5047620;28;20397;-46
2021/09/08 07:42:45;;;;;;;18.13;13.52;;;;;;;;;;5052923;28;20041;-44
2021/09/08 07:45:11;;;;;;;19.45;12.43;;;;;;;;;;5050552;28;20409;-45
2021/09/08 07:47:38;;;;;;;19.38;12.98;;;;;;;;;;5050927;28;20082;-45
2021/09/08 07:50:05;;;;;;;22.02;12.95;;;;;;;;;;5044488;28;20041;-44
2021/09/08 07:52:32;;;;;;;19.23;12.80;;;;;;;;;;5046146;28;20067;-49
2021/09/08 07:54:59;;;;;;;20.23;13.02;;;;;;;;;;5041304;28;20052;-45
2021/09/08 07:57:26;;;;;;;17.60;13.60;;;;;;;;;;5043250;28;20077;-46
2021/09/08 07:59:53;;;;;;;18.77;12.95;;;;;;;;;;5037810;28;20075;-46
2021/09/08 08:02:19;;;;;;;17.88;11.32;;;;;;;;;;5041508;28;20044;-48
2021/09/08 08:04:47;;;;;;;17.17;11.65;;;;;;;;;;5041922;28;20537;-45
2021/09/08 08:07:13;;;;;;;15.60;10.63;;;;;;;;;;5043792;28;20375;-46
2021/09/08 08:09:42;;;;;;;15.68;11.57;;;;;;;;;;5043962;28;20057;-44
2021/09/08 08:12:12;;;;;;;14.70;10.85;;;;;;;;;;5043415;28;20053;-46
2021/09/08 08:14:39;;;;;;;18.52;12.43;;;;;;;;;;5045092;28;20139;-45
2021/09/08 08:17:05;;;;;;;12.85;10.77;;;;;;;;;;5051260;28;20040;-45
2021/09/08 08:19:32;;;;;;;15.07;11.15;;;;;;;;;;5048909;28;20131;-44
2021/09/08 08:22:00;;;;;;;19.35;11.45;;;;;;;;;;5042317;28;20045;-43
2021/09/08 08:24:27;;;;;;;14.45;10.93;;;;;;;;;;5039926;28;20041;-44
2021/09/08 08:26:54;;;;;;;14.43;10.98;;;;;;;;;;5043340;28;20045;-44
2021/09/08 08:29:20;;;;;;;15.57;11.45;;;;;;;;;;5049453;28;20048;-44
2021/09/08 08:31:47;;;;;;;15.98;11.23;;;;;;;;;;5045928;28;20049;-46
2021/09/08 08:34:14;;;;;;;14.13;10.38;;;;;;;;;;5038978;28;20518;-45
2021/09/08 08:36:41;;;;;;;15.68;10.77;;;;;;;;;;5044197;28;20402;-45
2021/09/08 08:39:07;;;;;;;25.20;11.73;;;;;;;;;;5037179;28;20492;-47
2021/09/08 08:41:34;;;;;;;16.15;11.23;;;;;;;;;;5050178;28;20573;-45
2021/09/08 08:44:02;;;;;;;15.15;10.43;;;;;;;;;;5053046;28;20037;-46
2021/09/08 08:46:30;;;;;;;12.90;10.82;;;;;;;;;;5048962;28;20029;-44
2021/09/08 08:48:57;;;;;;;23.83;11.85;;;;;;;;;;5033610;28;20398;-43
2021/09/08 08:51:24;;;;;;;14.80;10.00;;;;;;;;;;5038053;28;20033;-44
2021/09/08 08:53:51;;;;;;;11.88;9.82;;;;;;;;;;5035631;28;20052;-44
2021/09/08 08:56:18;;;;;;;14.32;10.05;;;;;;;;;;5040402;28;20087;-45
2021/09/08 08:58:45;;;;;;;16.77;10.23;;;;;;;;;;5047473;28;20033;-48
2021/09/08 09:01:25;;;;;;;17.15;11.13;;;;;;;;;;5042435;28;20044;-46
2021/09/08 09:04:01;;;;;;;12.73;10.07;;;;;;;;;;5040956;28;20089;-45
2021/09/08 09:06:28;;;;;;;12.13;9.63;;;;;;;;;;5050030;28;20064;-46
2021/09/08 09:08:58;;;;;;;16.52;9.55;;;;;;;;;;5047951;28;20036;-45
2021/09/08 09:11:25;;;;;;;16.92;10.10;;;;;;;;;;5042596;28;20037;-45
2021/09/08 09:13:52;;;;;;;12.95;10.00;;;;;;;;;;5039797;28;20431;-44
2021/09/08 09:16:22;;;;;;;16.05;9.55;;;;;;;;;;5050693;28;20386;-45
2021/09/08 09:18:49;;;;;;;16.10;9.38;;;;;;;;;;5049511;28;20048;-45
2021/09/08 09:21:16;;;;;;;16.88;10.23;;;;;;;;;;5045208;28;20566;-44
2021/09/08 09:23:53;;;;;;;13.57;9.88;;;;;;;;;;5040370;28;20147;-46
2021/09/08 09:26:22;;;;;;;12.05;9.20;;;;;;;;;;5039604;28;20041;-45
2021/09/08 09:28:50;;;;;;;12.63;8.57;;;;;;;;;;5036892;28;20103;-46
2021/09/08 09:31:21;;;;;;;13.63;9.27;;;;;;;;;;5034258;28;20164;-46
2021/09/08 09:33:52;;;;;;;17.80;10.05;;;;;;;;;;5035694;28;20494;-49
2021/09/08 09:36:20;;;;;;;12.07;8.60;;;;;;;;;;5036645;28;20037;-44
2021/09/08 09:38:48;;;;;;;11.35;8.00;;;;;;;;;;5038702;28;20123;-45
2021/09/08 09:41:22;;;;;;;11.57;8.38;;;;;;;;;;5041269;28;20045;-45
2021/09/08 09:43:49;;;;;;;15.65;9.05;;;;;;;;;;5044268;28;20039;-47
2021/09/08 09:46:15;;;;;;;13.55;9.20;;;;;;;;;;5042051;28;20072;-45
2021/09/08 09:48:50;;;;;;;14.52;9.75;;;;;;;;;;5034666;28;20045;-43
2021/09/08 09:51:16;;;;;;;11.98;8.85;;;;;;;;;;5048331;28;20037;-45
2021/09/08 09:53:43;;;;;;;11.65;9.18;;;;;;;;;;5034492;28;20069;-48
2021/09/08 09:56:12;;;;;;;12.60;9.18;;;;;;;;;;5041876;28;20048;-46
2021/09/08 09:58:39;;;;;;;13.05;9.18;;;;;;;;;;5037285;28;20044;-45
2021/09/08 10:01:06;;;;;;;13.32;9.00;;;;;;;;;;5048676;28;20041;-46
2021/09/08 10:03:33;;;;;;;14.18;9.68;;;;;;;;;;5038095;28;20048;-47
2021/09/08 10:06:00;;;;;;;11.93;9.30;;;;;;;;;;5043711;28;20689;-46
2021/09/08 10:08:29;;;;;;;14.15;9.48;;;;;;;;;;5050101;28;20043;-45
2021/09/08 10:10:57;;;;;;;12.50;8.82;;;;;;;;;;5051084;28;20143;-46
2021/09/08 10:13:28;;;;;;;12.55;9.18;;;;;;;;;;5049072;28;20051;-46
2021/09/08 10:15:55;;;;;;;12.05;8.23;;;;;;;;;;5031489;28;20052;-45
2021/09/08 10:18:24;;;;;;;12.85;8.65;;;;;;;;;;5031147;28;20052;-49
2021/09/08 10:20:52;;;;;;;14.88;9.48;;;;;;;;;;5031051;28;20469;-45
2021/09/08 10:23:18;;;;;;;10.75;8.38;;;;;;;;;;5030243;28;20037;-47
2021/09/08 10:25:48;;;;;;;9.93;8.20;;;;;;;;;;5029938;28;20415;-51
2021/09/08 10:28:16;;;;;;;9.70;8.23;;;;;;;;;;5031186;28;20041;-46
2021/09/08 10:30:43;;;;;;;10.75;7.85;;;;;;;;;;5030802;28;20057;-47
2021/09/08 10:33:10;;;;;;;10.05;7.72;;;;;;;;;;5030129;28;20041;-50
2021/09/08 10:35:38;;;;;;;10.38;7.95;;;;;;;;;;5029480;28;20499;-48
2021/09/08 10:38:12;;;;;;;9.80;7.35;;;;;;;;;;5029661;28;20049;-47
2021/09/08 10:40:40;;;;;;;14.07;8.43;;;;;;;;;;5030764;28;20052;-45
2021/09/08 10:43:07;;;;;;;10.75;8.00;;;;;;;;;;5030178;28;20048;-45
2021/09/08 10:45:34;;;;;;;11.32;8.15;;;;;;;;;;5030720;28;20144;-44
2021/09/08 10:48:02;;;;;;;9.95;8.07;;;;;;;;;;5030907;28;20042;-43
2021/09/08 10:50:35;;;;;;;10.20;7.88;;;;;;;;;;5030866;28;20487;-45
2021/09/08 10:53:24;;;;;;;15.88;8.50;;;;;;;;;;5030732;28;20046;-44
2021/09/08 10:55:52;;;;;;;11.93;8.82;;;;;;;;;;5030733;28;20046;-46
2021/09/08 10:58:19;;;;;;;11.02;8.80;;;;;;;;;;5030900;28;20486;-46
2021/09/08 11:00:49;;;;;;;10.15;8.25;;;;;;;;;;5034450;28;20049;-47
2021/09/08 11:03:16;;;;;;;12.75;7.93;;;;;;;;;;5034179;28;20494;-42
2021/09/08 11:05:47;;;;;;;12.77;9.50;;;;;;;;;;5034629;28;20068;-45
2021/09/08 11:08:34;;;;;;;11.02;8.85;;;;;;;;;;5034693;28;20487;-45
2021/09/08 11:11:20;;;;;;;13.63;9.80;;;;;;;;;;5034473;28;20041;-43
2021/09/08 11:13:54;;;;;;;12.40;10.10;;;;;;;;;;5033530;28;20049;-45
2021/09/08 11:16:26;;;;;;;11.73;8.80;;;;;;;;;;5034630;28;20041;-43
2021/09/08 11:18:53;;;;;;;;;;;;;;;;;;5034922;28;20063;-44
2021/09/08 11:21:22;;;;;;;14.80;9.60;;;;;;;;;;5048456;22;19927;-43
2021/09/08 11:23:55;;;;;;;10.70;8.45;;;;;;;;;;5052176;28;20095;-43
2021/09/08 11:26:22;;;;;;;20.15;9.02;;;;;;;;;;5053497;28;20597;-43
2021/09/08 11:28:48;;;;;;;11.98;8.50;;;;;;;;;;5053069;28;20075;-44
2021/09/08 11:31:16;;;;;;;12.27;9.05;;;;;;;;;;5053317;28;20044;-44
2021/09/08 11:33:44;;;;;;;23.70;9.55;;;;;;;;;;5033786;28;20045;-44
2021/09/08 11:36:12;;;;;;;17.02;8.73;;;;;;;;;;5034415;28;20073;-45
2021/09/08 11:38:49;;;;;;;11.93;8.57;;;;;;;;;;5034220;28;20044;-44
2021/09/08 11:41:17;;;;;;;10.73;8.05;;;;;;;;;;5034203;28;20084;-44
2021/09/08 11:43:44;;;;;;;9.32;7.57;;;;;;;;;;5033244;28;20483;-44
2021/09/08 11:46:11;;;;;;;10.68;8.95;;;;;;;;;;5034230;28;20045;-46
2021/09/08 11:48:37;;;;;;;12.23;8.20;;;;;;;;;;5032995;28;20045;-47
2021/09/08 11:51:05;;;;;;;11.45;7.93;;;;;;;;;;5033957;28;20049;-46
2021/09/08 11:53:32;;;;;;;10.73;7.70;;;;;;;;;;5033105;28;20459;-44
2021/09/08 11:56:04;;;;;;;10.90;8.57;;;;;;;;;;5034031;28;20069;-46
2021/09/08 11:58:33;;;;;;;10.68;7.70;;;;;;;;;;5032912;28;20124;-45
2021/09/08 12:01:03;;;;;;;10.23;7.72;;;;;;;;;;5032739;28;20439;-46
2021/09/08 12:03:31;;;;;;;10.18;7.82;;;;;;;;;;5033250;28;20482;-44
2021/09/08 12:06:12;;;;;;;9.43;7.47;;;;;;;;;;5033886;28;20041;-45
2021/09/08 12:08:55;;;;;;;9.70;6.97;;;;;;;;;;5034128;28;20136;-48
2021/09/08 12:11:41;;;;;;;10.95;7.88;;;;;;;;;;5033802;28;20115;-45
2021/09/08 12:14:17;;;;;;;10.43;8.07;;;;;;;;;;5033149;28;20041;-44
2021/09/08 12:16:44;;;;;;;9.55;7.18;;;;;;;;;;5033892;28;20052;-46
2021/09/08 12:19:12;;;;;;;9.95;7.15;;;;;;;;;;5033727;28;20041;-44
2021/09/08 12:21:39;;;;;;;9.50;7.35;;;;;;;;;;5033348;28;20047;-44
2021/09/08 12:24:26;;;;;;;9.13;6.43;;;;;;;;;;5032826;28;20052;-45
2021/09/08 12:26:54;;;;;;;9.68;6.65;;;;;;;;;;5032206;28;20037;-49
2021/09/08 12:29:21;;;;;;;10.25;6.43;;;;;;;;;;5032120;28;20463;-43
2021/09/08 12:32:00;;;;;;;11.18;6.75;;;;;;;;;;5033233;28;20509;-46
2021/09/08 12:34:44;;;;;;;9.90;6.25;;;;;;;;;;5032571;28;20410;-46
2021/09/08 12:37:11;;;;;;;8.85;6.75;;;;;;;;;;5033285;28;20128;-45
2021/09/08 12:39:42;;;;;;;9.98;7.18;;;;;;;;;;5033094;28;20045;-45
2021/09/08 12:42:16;;;;;;;9.23;6.65;;;;;;;;;;5033225;28;20045;-47
2021/09/08 12:44:43;;;;;;;8.02;6.32;;;;;;;;;;5052387;28;20286;-45
2021/09/08 12:47:14;;;;;;;8.77;6.75;;;;;;;;;;5052962;28;20041;-44
2021/09/08 12:49:42;;;;;;;7.53;6.72;;;;;;;;;;5051934;28;20044;-43
2021/09/08 12:52:16;;;;;;;9.93;6.10;;;;;;;;;;5046782;28;20037;-43
2021/09/08 12:54:43;;;;;;;8.90;6.28;;;;;;;;;;5032294;28;20046;-44
2021/09/08 12:57:10;;;;;;;7.53;6.53;;;;;;;;;;5032983;28;20044;-45
2021/09/08 12:59:38;;;;;;;8.98;6.30;;;;;;;;;;5032894;28;20499;-44
2021/09/08 13:02:06;;;;;;;9.15;6.20;;;;;;;;;;5032750;28;20461;-43
2021/09/08 13:04:34;;;;;;;8.70;5.90;;;;;;;;;;5031794;28;20753;-43
2021/09/08 13:07:01;;;;;;;8.27;5.70;;;;;;;;;;5032725;28;20039;-45
2021/09/08 13:09:29;;;;;;;8.25;5.80;;;;;;;;;;5032662;28;20077;-43
2021/09/08 13:11:56;;;;;;;8.88;6.22;;;;;;;;;;5032366;28;20384;-45
2021/09/08 13:14:23;;;;;;;9.10;6.43;;;;;;;;;;5031955;28;20045;-43
2021/09/08 13:16:49;;;;;;;9.93;6.45;;;;;;;;;;5032619;28;20053;-44
2021/09/08 13:19:16;;;;;;;8.13;6.47;;;;;;;;;;5032215;28;20422;-45
2021/09/08 13:21:43;;;;;;;7.53;5.72;;;;;;;;;;5031326;28;20147;-45
2021/09/08 13:24:11;;;;;;;8.38;6.15;;;;;;;;;;5048118;28;20075;-44
2021/09/08 13:26:38;;;;;;;8.52;6.70;;;;;;;;;;5052444;28;20045;-44
2021/09/08 13:29:07;;;;;;;9.73;6.78;;;;;;;;;;5051149;28;20091;-44
2021/09/08 13:31:33;;;;;;;9.25;6.78;;;;;;;;;;5035689;28;20049;-48
2021/09/08 13:34:01;;;;;;;9.57;7.00;;;;;;;;;;5031598;28;20056;-43
2021/09/08 13:36:30;;;;;;;11.77;6.95;;;;;;;;;;5032235;28;20177;-46
2021/09/08 13:39:00;;;;;;;7.80;6.35;;;;;;;;;;5031237;28;20061;-43
2021/09/08 13:41:30;;;;;;;7.45;6.28;;;;;;;;;;5031343;28;20037;-45
2021/09/08 13:43:57;;;;;;;7.93;6.75;;;;;;;;;;5031485;28;20058;-46
2021/09/08 13:46:24;;;;;;;7.88;6.50;;;;;;;;;;5032742;28;20124;-42
2021/09/08 13:48:51;;;;;;;9.98;6.60;;;;;;;;;;5032077;28;20051;-45
2021/09/08 13:51:18;;;;;;;8.43;6.55;;;;;;;;;;5032179;28;20042;-45
2021/09/08 13:53:46;;;;;;;8.40;6.07;;;;;;;;;;5031086;28;20595;-43
2021/09/08 13:56:14;;;;;;;7.30;5.93;;;;;;;;;;5031324;28;20520;-42
2021/09/08 13:58:41;;;;;;;9.93;6.95;;;;;;;;;;5031918;28;20144;-42
2021/09/08 14:01:07;;;;;;;12.38;6.30;;;;;;;;;;5031728;28;20071;-44
2021/09/08 14:03:35;;;;;;;9.30;6.05;;;;;;;;;;5042412;28;20127;-42
2021/09/08 14:06:02;;;;;;;9.23;6.38;;;;;;;;;;5044273;28;20037;-44
2021/09/08 14:08:29;;;;;;;9.55;6.40;;;;;;;;;;5051640;28;20049;-41
2021/09/08 14:10:56;;;;;;;8.90;7.10;;;;;;;;;;5051666;28;20124;-42
2021/09/08 14:13:22;;;;;;;11.07;6.85;;;;;;;;;;5039409;28;20049;-45
2021/09/08 14:15:49;;;;;;;9.30;6.60;;;;;;;;;;5031504;28;20053;-43
2021/09/08 14:18:16;;;;;;;8.25;6.22;;;;;;;;;;5031559;28;20105;-44
2021/09/08 14:20:43;;;;;;;8.07;6.43;;;;;;;;;;5030213;28;20148;-42
2021/09/08 14:23:10;;;;;;;8.65;7.30;;;;;;;;;;5030723;28;20069;-44
2021/09/08 14:25:37;;;;;;;9.27;6.70;;;;;;;;;;5031444;28;20072;-42
2021/09/08 14:28:04;;;;;;;9.18;6.18;;;;;;;;;;5031201;28;20138;-44